Time;durP1;ratioP1;P1;durP2;ratioP2;P2;SDS_P1;SDS_P2;PMS_P1;PMS_P2;Temp;Humidity;BMP_temperature;BMP_pressure;BME280_temperature;BME280_humidity;BME280_pressure;Samples;Min_cycle;Max_cycle;Signal;HPM_P1;HPM_P2
2021/11/28 00:00:51;;;;;;;3.03;1.67;;;6.30;70.30;;;;;;5019889;28;20059;-78
2021/11/28 00:03:19;;;;;;;4.10;1.65;;;6.30;70.80;;;;;;5030035;28;20040;-78
2021/11/28 00:05:56;;;;;;;5.43;2.03;;;6.30;70.70;;;;;;5017309;28;20059;-78
2021/11/28 00:09:20;;;;;;;4.40;1.60;;;6.30;71.30;;;;;;5018939;28;20026;-78
2021/11/28 00:11:20;;;;;;;5.75;1.33;;;6.30;70.80;;;;;;5021295;28;20038;-78
2021/11/28 00:14:04;;;;;;;4.93;1.33;;;6.30;70.20;;;;;;5019161;28;20026;-78
2021/11/28 00:16:58;;;;;;;3.10;1.38;;;6.30;69.80;;;;;;5018725;28;20464;-78
2021/11/28 00:19:23;;;;;;;1.77;1.23;;;6.40;69.70;;;;;;5019044;28;20026;-78
2021/11/28 00:21:49;;;;;;;6.28;1.95;;;6.40;69.50;;;;;;5018166;28;20171;-78
2021/11/28 00:24:15;;;;;;;5.93;1.58;;;6.50;70.20;;;;;;5017279;28;20025;-78
2021/11/28 00:26:40;;;;;;;8.63;1.95;;;6.40;70.20;;;;;;5018489;28;20030;-78
2021/11/28 00:29:08;;;;;;;2.67;1.48;;;6.50;69.70;;;;;;5017721;28;20033;-78
2021/11/28 00:31:34;;;;;;;5.68;1.45;;;6.40;69.30;;;;;;5026210;28;20041;-78
2021/11/28 00:33:59;;;;;;;4.28;1.45;;;6.30;69.60;;;;;;5038592;28;20029;-78
2021/11/28 00:36:25;;;;;;;5.55;1.67;;;6.30;69.40;;;;;;5037976;28;20036;-78
2021/11/28 00:38:51;;;;;;;8.43;1.95;;;6.40;69.80;;;;;;5033488;28;20037;-78
2021/11/28 00:41:16;;;;;;;1.20;1.00;;;6.40;70.10;;;;;;5032883;28;20484;-79
2021/11/28 00:43:42;;;;;;;8.00;1.80;;;6.30;69.20;;;;;;5031473;28;20037;-79
2021/11/28 00:46:08;;;;;;;6.03;1.95;;;6.30;69.80;;;;;;5047168;28;20021;-78
2021/11/28 00:48:36;;;;;;;9.57;1.92;;;6.30;69.80;;;;;;5039543;28;20038;-78
2021/11/28 00:53:47;;;;;;;3.88;1.50;;;6.40;70.00;;;;;;5018481;28;20061;-78
2021/11/28 00:56:13;;;;;;;11.60;1.77;;;6.40;70.50;;;;;;5025739;28;20048;-78
2021/11/28 00:58:39;;;;;;;4.68;1.73;;;6.50;70.60;;;;;;5016963;28;20025;-78
2021/11/28 01:01:05;;;;;;;9.57;1.55;;;6.40;70.10;;;;;;5031814;28;20453;-78
2021/11/28 01:03:32;;;;;;;3.58;2.35;;;6.40;70.70;;;;;;5054909;28;20029;-78
2021/11/28 01:05:58;;;;;;;8.18;2.38;;;6.40;70.20;;;;;;5033176;28;20076;-78
2021/11/28 01:08:24;;;;;;;7.18;1.77;;;6.40;69.30;;;;;;5016834;28;20022;-78
2021/11/28 01:10:50;;;;;;;5.68;1.27;;;6.30;69.50;;;;;;5016596;28;20442;-78
2021/11/28 01:13:17;;;;;;;6.95;1.27;;;6.30;69.70;;;;;;5018002;28;20365;-78
2021/11/28 01:15:43;;;;;;;6.10;1.42;;;6.40;69.30;;;;;;5017081;28;20083;-78
2021/11/28 01:18:09;;;;;;;5.93;1.52;;;6.40;68.90;;;;;;5017476;28;20077;-78
2021/11/28 01:20:35;;;;;;;1.85;1.20;;;6.40;69.20;;;;;;5018148;28;20119;-78
2021/11/28 01:23:01;;;;;;;5.82;1.90;;;6.40;69.50;;;;;;5017684;28;20029;-78
2021/11/28 01:25:29;;;;;;;6.10;1.73;;;6.40;69.70;;;;;;5016420;28;20030;-79
2021/11/28 01:27:56;;;;;;;8.85;2.00;;;6.30;69.60;;;;;;5016104;28;20030;-78
2021/11/28 01:30:21;;;;;;;6.00;1.60;;;6.40;70.40;;;;;;5016361;28;20550;-78
2021/11/28 01:32:47;;;;;;;5.00;1.38;;;6.40;70.70;;;;;;5021357;28;20026;-79
2021/11/28 01:35:16;;;;;;;7.13;1.75;;;6.40;70.40;;;;;;5017173;28;20048;-78
2021/11/28 01:37:44;;;;;;;5.18;2.10;;;6.30;70.40;;;;;;5015931;28;20033;-78
2021/11/28 01:40:14;;;;;;;9.93;2.13;;;6.30;70.40;;;;;;5017379;28;20023;-79
2021/11/28 01:42:53;;;;;;;5.22;1.83;;;6.30;70.40;;;;;;5031196;28;20041;-77
2021/11/28 01:45:29;;;;;;;4.72;1.70;;;6.30;70.00;;;;;;5032974;28;20030;-79
2021/11/28 01:47:59;;;;;;;4.45;1.83;;;6.20;70.20;;;;;;5025218;28;20026;-78
2021/11/28 01:50:27;;;;;;;9.57;2.53;;;6.20;70.60;;;;;;5016236;28;20041;-78
2021/11/28 01:52:53;;;;;;;4.15;1.77;;;6.20;70.30;;;;;;5015648;28;20029;-78
2021/11/28 01:55:23;;;;;;;12.93;1.98;;;6.00;69.70;;;;;;5016835;28;20095;-78
2021/11/28 01:57:49;;;;;;;8.80;1.45;;;6.00;70.40;;;;;;5016978;28;20021;-78
2021/11/28 02:00:19;;;;;;;9.55;1.60;;;6.00;70.20;;;;;;5016925;28;20484;-79
2021/11/28 02:02:46;;;;;;;6.03;1.48;;;6.00;70.10;;;;;;5016758;28;20093;-78
2021/11/28 02:05:14;;;;;;;4.88;1.20;;;6.00;69.50;;;;;;5021156;28;20036;-78
2021/11/28 02:07:39;;;;;;;6.95;1.50;;;6.00;70.10;;;;;;5015426;28;20022;-79
2021/11/28 02:10:06;;;;;;;3.38;1.35;;;6.00;69.20;;;;;;5015685;28;20018;-78
2021/11/28 02:12:32;;;;;;;3.55;1.42;;;6.10;69.40;;;;;;5016911;28;20041;-79
2021/11/28 02:14:58;;;;;;;8.05;1.77;;;6.10;69.20;;;;;;5016613;28;20033;-79
2021/11/28 02:17:24;;;;;;;8.05;1.83;;;6.10;69.60;;;;;;5016865;28;20373;-78
2021/11/28 02:19:49;;;;;;;5.10;1.52;;;6.20;69.60;;;;;;5015598;28;20253;-78
2021/11/28 02:22:15;;;;;;;4.78;1.70;;;6.20;69.70;;;;;;5016423;28;20034;-78
2021/11/28 02:24:41;;;;;;;3.53;1.65;;;6.20;69.60;;;;;;5020372;28;20049;-78
2021/11/28 02:27:07;;;;;;;4.00;1.50;;;6.10;70.70;;;;;;5018285;28;20427;-78
2021/11/28 02:29:33;;;;;;;3.55;1.40;;;6.20;70.30;;;;;;5016543;28;20157;-78
2021/11/28 02:31:59;;;;;;;8.90;1.70;;;6.10;70.40;;;;;;5014653;28;20041;-78
2021/11/28 02:34:25;;;;;;;5.25;1.42;;;6.10;70.90;;;;;;5015238;28;20034;-78
2021/11/28 02:36:53;;;;;;;11.70;1.65;;;6.10;70.40;;;;;;5014821;28;20032;-78
2021/11/28 02:39:20;;;;;;;2.15;1.30;;;6.20;71.90;;;;;;5021701;28;20030;-79
2021/11/28 02:41:46;;;;;;;10.00;1.40;;;6.20;72.80;;;;;;5020516;28;20049;-79
2021/11/28 02:44:13;;;;;;;7.97;1.95;;;6.10;73.10;;;;;;5016153;28;20029;-79
2021/11/28 02:46:39;;;;;;;3.53;1.33;;;6.10;73.80;;;;;;5031295;28;20396;-79
2021/11/28 02:49:05;;;;;;;3.05;1.50;;;6.10;74.20;;;;;;5015678;28;20033;-79
2021/11/28 02:51:35;;;;;;;5.18;1.70;;;6.00;73.90;;;;;;5015869;28;20030;-79
2021/11/28 02:54:02;;;;;;;9.80;2.28;;;6.00;74.60;;;;;;5015902;28;20034;-79
2021/11/28 02:56:28;;;;;;;4.93;1.38;;;6.00;74.30;;;;;;5015913;28;20156;-78
2021/11/28 02:58:54;;;;;;;7.05;2.17;;;6.00;74.80;;;;;;5015944;28;20042;-78
2021/11/28 03:01:22;;;;;;;9.80;2.25;;;5.90;74.80;;;;;;5047930;28;20026;-79
2021/11/28 03:03:49;;;;;;;6.65;1.60;;;6.00;75.00;;;;;;5014511;28;20379;-79
2021/11/28 03:06:15;;;;;;;8.60;1.85;;;6.00;74.40;;;;;;5015728;28;20026;-79
2021/11/28 03:08:41;;;;;;;12.25;1.67;;;6.00;74.90;;;;;;5047126;28;20037;-79
2021/11/28 03:11:08;;;;;;;3.03;1.23;;;6.00;73.90;;;;;;5047575;28;20507;-79
2021/11/28 03:13:43;;;;;;;5.18;1.75;;;5.90;74.40;;;;;;5047238;28;20049;-78
2021/11/28 03:16:17;;;;;;;4.82;1.38;;;5.90;73.90;;;;;;5014228;28;20401;-79
2021/11/28 03:18:43;;;;;;;4.32;1.48;;;5.90;73.80;;;;;;5014594;28;20057;-79
2021/11/28 03:21:19;;;;;;;4.55;1.48;;;5.90;73.90;;;;;;5016063;28;20418;-79
2021/11/28 03:23:46;;;;;;;2.58;1.40;;;5.90;73.40;;;;;;5015410;28;20034;-79
2021/11/28 03:26:25;;;;;;;2.47;1.20;;;5.80;72.90;;;;;;5015190;28;20049;-79
2021/11/28 03:29:00;;;;;;;7.60;1.33;;;6.00;72.50;;;;;;5014636;28;20356;-79
2021/11/28 03:31:30;;;;;;;5.57;1.38;;;5.90;72.10;;;;;;5015522;28;20026;-79
2021/11/28 03:33:56;;;;;;;5.38;1.30;;;6.00;72.10;;;;;;5015320;28;20085;-78
2021/11/28 03:36:26;;;;;;;5.43;1.20;;;5.80;72.10;;;;;;5015344;28;20030;-79
2021/11/28 03:38:53;;;;;;;5.72;1.40;;;5.90;73.00;;;;;;5015096;28;20034;-79
2021/11/28 03:41:20;;;;;;;3.38;1.35;;;6.00;73.00;;;;;;5014886;28;20034;-79
2021/11/28 03:43:48;;;;;;;2.17;1.98;;;6.00;73.00;;;;;;5013613;28;20057;-79
2021/11/28 03:46:14;;;;;;;2.97;1.55;;;6.00;72.40;;;;;;5047204;28;20032;-78
2021/11/28 03:48:40;;;;;;;3.33;1.10;;;6.00;71.90;;;;;;5054949;28;20175;-79
2021/11/28 03:51:05;;;;;;;4.82;1.40;;;6.10;73.00;;;;;;5042039;28;20041;-79
2021/11/28 03:53:31;;;;;;;4.38;1.42;;;6.00;73.80;;;;;;5013902;28;20092;-79
2021/11/28 03:56:01;;;;;;;5.05;1.70;;;6.00;73.00;;;;;;5015285;28;20566;-79
2021/11/28 03:58:28;;;;;;;12.20;1.65;;;6.10;74.10;;;;;;5013659;28;20057;-79
2021/11/28 04:00:55;;;;;;;2.63;1.20;;;5.90;73.20;;;;;;5015235;28;20129;-79
2021/11/28 04:03:20;;;;;;;10.43;1.90;;;5.90;74.50;;;;;;5013245;28;20026;-79
2021/11/28 04:05:46;;;;;;;6.22;1.42;;;5.90;76.30;;;;;;5014057;28;20037;-79
2021/11/28 04:08:12;;;;;;;5.55;1.60;;;5.80;75.90;;;;;;5013834;28;20053;-79
2021/11/28 04:10:37;;;;;;;5.22;1.65;;;5.80;76.20;;;;;;5013607;28;20048;-79
2021/11/28 04:13:04;;;;;;;6.43;1.48;;;5.80;76.00;;;;;;5015102;28;20117;-79
2021/11/28 04:15:30;;;;;;;2.88;1.38;;;5.80;75.80;;;;;;5013663;28;20492;-79
2021/11/28 04:17:56;;;;;;;5.35;1.88;;;5.80;75.50;;;;;;5013573;28;20052;-78
2021/11/28 04:20:22;;;;;;;5.53;1.70;;;5.80;75.30;;;;;;5014763;28;20037;-78
2021/11/28 04:22:47;;;;;;;10.82;3.17;;;5.80;75.10;;;;;;5013727;28;20026;-79
2021/11/28 04:25:14;;;;;;;3.95;1.30;;;5.70;73.60;;;;;;5013617;28;20025;-79
2021/11/28 04:27:40;;;;;;;8.30;1.30;;;5.70;73.60;;;;;;5014752;28;20049;-79
2021/11/28 04:30:09;;;;;;;4.13;1.35;;;5.70;73.20;;;;;;5014864;28;20054;-79
2021/11/28 04:32:35;;;;;;;9.77;2.08;;;5.70;73.30;;;;;;5014898;28;20034;-78
2021/11/28 04:35:01;;;;;;;4.45;1.52;;;5.70;73.20;;;;;;5013299;28;20586;-79
2021/11/28 04:37:27;;;;;;;4.00;1.48;;;5.70;72.70;;;;;;5014611;28;20408;-79
2021/11/28 04:39:53;;;;;;;3.63;1.23;;;5.70;72.90;;;;;;5013445;28;20030;-79
2021/11/28 04:42:19;;;;;;;6.72;1.35;;;5.70;72.40;;;;;;5014690;28;20073;-79
2021/11/28 04:44:47;;;;;;;4.00;1.80;;;5.60;72.60;;;;;;5019795;28;20036;-79
2021/11/28 04:47:15;;;;;;;3.35;1.20;;;5.60;72.50;;;;;;5054355;28;20035;-79
2021/11/28 04:49:41;;;;;;;7.75;1.52;;;5.70;72.30;;;;;;5053655;28;20601;-79
2021/11/28 04:52:07;;;;;;;6.30;1.50;;;5.70;71.20;;;;;;5037530;28;20065;-78
2021/11/28 04:54:33;;;;;;;2.90;1.35;;;5.60;71.80;;;;;;5016763;28;20029;-79
2021/11/28 04:56:59;;;;;;;3.25;1.10;;;5.70;72.40;;;;;;5016800;28;20041;-78
2021/11/28 04:59:25;;;;;;;5.03;1.50;;;5.70;72.00;;;;;;5018097;28;20073;-79
2021/11/28 05:01:51;;;;;;;1.73;1.33;;;5.70;71.50;;;;;;5018291;28;20069;-79
2021/11/28 05:04:17;;;;;;;3.63;1.40;;;5.70;72.30;;;;;;5016966;28;20025;-79
2021/11/28 05:06:42;;;;;;;7.60;1.73;;;5.70;72.60;;;;;;5016629;28;20743;-79
2021/11/28 05:09:08;;;;;;;8.38;2.10;;;5.70;71.80;;;;;;5017891;28;20460;-79
2021/11/28 05:11:35;;;;;;;8.45;2.03;;;5.70;73.40;;;;;;5017803;28;20030;-79
2021/11/28 05:14:01;;;;;;;9.05;1.58;;;5.70;72.10;;;;;;5016655;28;20559;-79
2021/11/28 05:16:27;;;;;;;4.38;1.20;;;5.70;72.50;;;;;;5017914;28;20081;-79
2021/11/28 05:18:56;;;;;;;3.53;1.52;;;5.70;73.10;;;;;;5016717;28;20033;-79
2021/11/28 05:21:22;;;;;;;5.97;1.63;;;5.60;73.40;;;;;;5017657;28;20033;-78
2021/11/28 05:23:48;;;;;;;3.08;1.48;;;5.50;73.30;;;;;;5017515;28;20041;-79
2021/11/28 05:26:13;;;;;;;3.85;1.40;;;5.50;73.90;;;;;;5017777;28;20030;-78
2021/11/28 05:28:39;;;;;;;2.47;1.63;;;5.50;73.40;;;;;;5017593;28;20770;-79
2021/11/28 05:31:05;;;;;;;4.45;1.20;;;5.40;73.80;;;;;;5016630;28;20022;-79
2021/11/28 05:33:31;;;;;;;2.15;1.42;;;5.50;74.50;;;;;;5017487;28;20045;-78
2021/11/28 05:35:57;;;;;;;3.90;1.23;;;5.60;74.20;;;;;;5015958;28;20056;-78
2021/11/28 05:38:22;;;;;;;5.65;1.52;;;5.50;73.60;;;;;;5016013;28;20108;-79
2021/11/28 05:40:48;;;;;;;4.82;1.95;;;5.50;73.50;;;;;;5049087;28;20032;-79
2021/11/28 05:43:14;;;;;;;4.78;1.73;;;5.60;73.50;;;;;;5016995;28;20049;-79
2021/11/28 05:45:40;;;;;;;4.03;1.67;;;5.60;73.70;;;;;;5037824;28;20115;-79
2021/11/28 05:48:06;;;;;;;3.47;1.60;;;5.50;74.00;;;;;;5056979;28;20059;-79
2021/11/28 05:50:32;;;;;;;5.38;1.40;;;5.60;73.30;;;;;;5057092;28;20029;-79
2021/11/28 05:53:00;;;;;;;5.38;1.65;;;5.50;73.30;;;;;;5045778;28;20034;-79
2021/11/28 05:55:27;;;;;;;3.10;1.65;;;5.50;74.40;;;;;;5032143;28;20026;-79
2021/11/28 05:57:53;;;;;;;3.70;1.20;;;5.50;73.70;;;;;;5017019;28;20041;-79
2021/11/28 06:00:20;;;;;;;1.90;1.20;;;5.50;74.70;;;;;;5032202;28;20021;-79
2021/11/28 06:02:46;;;;;;;3.53;1.50;;;5.40;74.00;;;;;;5030802;28;20061;-79
2021/11/28 06:05:12;;;;;;;1.40;1.10;;;5.40;74.70;;;;;;5015928;28;20029;-79
2021/11/28 06:07:38;;;;;;;4.68;1.45;;;5.30;74.30;;;;;;5015676;28;20416;-79
2021/11/28 06:10:05;;;;;;;3.13;1.17;;;5.30;74.00;;;;;;5017004;28;20026;-79
2021/11/28 06:12:31;;;;;;;3.60;1.60;;;5.30;74.40;;;;;;5016715;28;20030;-79
2021/11/28 06:14:56;;;;;;;4.13;1.70;;;5.30;73.40;;;;;;4999024;28;20484;-78
2021/11/28 06:17:23;;;;;;;5.30;1.23;;;5.30;73.30;;;;;;5015782;28;20923;-78
2021/11/28 06:19:49;;;;;;;4.93;1.42;;;5.30;73.00;;;;;;5015386;28;20026;-78
2021/11/28 06:22:14;;;;;;;4.38;1.30;;;5.30;73.30;;;;;;5016110;28;20113;-79
2021/11/28 06:24:40;;;;;;;2.20;1.25;;;5.30;72.40;;;;;;5016958;28;20018;-78
2021/11/28 06:27:09;;;;;;;3.08;1.80;;;5.30;72.60;;;;;;5015115;28;20079;-78
2021/11/28 06:29:36;;;;;;;2.20;1.20;;;5.30;71.70;;;;;;5015269;28;20026;-78
2021/11/28 06:32:03;;;;;;;8.38;1.60;;;5.30;71.90;;;;;;5015135;28;20030;-79
2021/11/28 06:34:28;;;;;;;4.43;1.50;;;5.30;71.70;;;;;;5029693;28;20033;-79
2021/11/28 06:36:57;;;;;;;2.63;1.20;;;5.30;71.60;;;;;;5035866;28;20083;-78
2021/11/28 06:39:22;;;;;;;4.20;1.90;;;5.30;71.70;;;;;;5033650;28;20116;-79
2021/11/28 06:41:49;;;;;;;2.00;1.08;;;5.40;71.80;;;;;;5035694;28;20088;-78
2021/11/28 06:44:14;;;;;;;3.92;1.30;;;5.30;71.80;;;;;;5035775;28;20057;-78
2021/11/28 06:46:40;;;;;;;4.72;1.50;;;5.20;72.20;;;;;;5053637;28;20734;-78
2021/11/28 06:49:06;;;;;;;2.28;1.05;;;5.20;72.20;;;;;;5024238;28;20492;-78
2021/11/28 06:51:32;;;;;;;3.35;1.55;;;5.20;72.50;;;;;;5016247;28;20076;-79
2021/11/28 06:53:57;;;;;;;5.53;1.48;;;5.20;72.00;;;;;;5014574;28;20061;-80
2021/11/28 06:56:23;;;;;;;3.42;1.60;;;5.20;72.40;;;;;;5014340;28;20026;-81
2021/11/28 06:58:49;;;;;;;7.50;1.33;;;5.30;71.70;;;;;;5016004;28;20033;-80
2021/11/28 07:01:15;;;;;;;4.90;1.40;;;5.30;71.70;;;;;;5014861;28;20022;-80
2021/11/28 07:03:41;;;;;;;1.02;0.93;;;5.30;72.20;;;;;;5015050;28;20100;-80
2021/11/28 07:06:07;;;;;;;3.15;1.40;;;5.30;73.90;;;;;;5025902;28;20095;-80
2021/11/28 07:08:32;;;;;;;6.70;1.38;;;5.30;75.10;;;;;;5029184;28;20113;-80
2021/11/28 07:10:58;;;;;;;4.88;1.30;;;5.30;76.30;;;;;;5034395;28;20487;-80
2021/11/28 07:13:25;;;;;;;5.50;1.30;;;5.20;76.60;;;;;;5031144;28;20033;-79
2021/11/28 07:15:51;;;;;;;2.83;1.38;;;5.20;77.00;;;;;;5035195;28;20021;-80
2021/11/28 07:18:17;;;;;;;6.20;1.42;;;5.20;77.00;;;;;;5033427;28;20030;-78
2021/11/28 07:20:43;;;;;;;7.45;1.92;;;5.40;76.90;;;;;;5033108;28;20032;-77
2021/11/28 07:23:09;;;;;;;3.63;1.35;;;5.40;76.60;;;;;;5025623;28;20025;-79
2021/11/28 07:25:34;;;;;;;4.95;1.20;;;5.40;76.60;;;;;;5034974;28;20057;-79
2021/11/28 07:28:01;;;;;;;3.00;1.20;;;5.50;76.10;;;;;;5033758;28;20403;-82
2021/11/28 07:30:28;;;;;;;5.47;1.65;;;5.50;76.20;;;;;;5032632;28;20025;-80
2021/11/28 07:32:54;;;;;;;4.95;1.65;;;5.50;76.30;;;;;;5029961;28;20094;-79
2021/11/28 07:35:20;;;;;;;7.13;1.40;;;5.50;76.20;;;;;;5032076;28;20116;-77
2021/11/28 07:37:46;;;;;;;5.78;1.33;;;5.50;75.60;;;;;;5035323;28;20084;-76
2021/11/28 07:40:13;;;;;;;5.43;1.30;;;5.50;76.30;;;;;;5031610;28;20720;-76
2021/11/28 07:42:39;;;;;;;6.13;1.95;;;5.50;75.40;;;;;;5033894;28;20080;-76
2021/11/28 07:45:06;;;;;;;3.63;1.63;;;5.50;74.90;;;;;;5036026;28;20025;-77
2021/11/28 07:47:32;;;;;;;2.67;1.42;;;5.60;74.60;;;;;;5031661;28;20030;-77
2021/11/28 07:49:59;;;;;;;5.47;1.80;;;5.60;74.40;;;;;;5034270;28;20028;-76
2021/11/28 07:52:24;;;;;;;5.10;1.38;;;5.60;73.90;;;;;;5035372;28;20087;-76
2021/11/28 07:54:50;;;;;;;3.80;1.17;;;5.60;73.60;;;;;;5033344;28;20029;-76
2021/11/28 07:57:16;;;;;;;6.25;1.63;;;5.50;73.90;;;;;;5032624;28;20033;-77
2021/11/28 07:59:42;;;;;;;3.95;1.30;;;5.50;75.00;;;;;;5031848;28;20025;-76
2021/11/28 08:02:09;;;;;;;2.22;1.30;;;5.50;74.90;;;;;;5034735;28;20040;-76
2021/11/28 08:04:35;;;;;;;8.48;1.85;;;5.60;75.40;;;;;;5017447;28;21085;-86
2021/11/28 08:07:06;;;;;;;2.05;1.20;;;5.60;74.30;;;;;;5013699;28;20149;-78
2021/11/28 08:09:32;;;;;;;3.83;1.25;;;5.70;73.20;;;;;;5014746;28;20018;-77
2021/11/28 08:11:58;;;;;;;1.77;1.55;;;5.80;72.60;;;;;;5015035;28;20500;-78
2021/11/28 08:17:26;;;;;;;3.80;1.83;;;5.90;69.20;;;;;;5065379;28;20386;-82
2021/11/28 08:19:51;;;;;;;12.73;1.95;;;5.80;70.30;;;;;;5070962;28;20036;-84
2021/11/28 08:22:17;;;;;;;3.05;1.15;;;5.80;71.20;;;;;;5068742;28;20035;-84
2021/11/28 08:24:43;;;;;;;1.63;1.45;;;6.00;69.70;;;;;;5063274;28;20080;-84
2021/11/28 08:27:09;;;;;;;5.53;1.67;;;6.10;69.40;;;;;;5057929;28;20036;-84
2021/11/28 08:29:35;;;;;;;2.28;1.17;;;6.30;68.90;;;;;;5051893;28;20053;-83
2021/11/28 08:32:01;;;;;;;3.17;1.42;;;6.50;68.50;;;;;;5051557;28;20531;-81
2021/11/28 08:34:27;;;;;;;2.65;1.25;;;6.60;68.40;;;;;;5051612;28;20033;-83
2021/11/28 08:36:54;;;;;;;3.13;1.30;;;6.70;68.30;;;;;;5050919;28;20112;-83
2021/11/28 08:39:20;;;;;;;5.63;1.65;;;6.70;66.50;;;;;;5067790;28;20028;-83
2021/11/28 08:41:46;;;;;;;6.57;3.15;;;6.80;66.90;;;;;;5067604;28;20021;-83
2021/11/28 08:44:11;;;;;;;6.97;3.20;;;6.80;67.30;;;;;;5069537;28;20091;-83
2021/11/28 08:46:37;;;;;;;11.73;3.28;;;6.90;67.20;;;;;;5065249;28;20630;-84
2021/11/28 08:49:03;;;;;;;8.43;3.40;;;7.00;67.30;;;;;;5069968;28;20106;-83
2021/11/28 08:51:29;;;;;;;6.22;3.25;;;7.10;67.30;;;;;;5068762;28;20028;-90
2021/11/28 08:53:58;;;;;;;4.93;2.72;;;7.20;69.30;;;;;;5069581;28;20083;-83
2021/11/28 08:56:24;;;;;;;5.65;2.30;;;7.20;67.80;;;;;;5052269;28;20564;-85
2021/11/28 08:58:51;;;;;;;5.55;2.38;;;7.20;66.60;;;;;;5070100;28;20033;-83
2021/11/28 09:01:17;;;;;;;6.22;2.38;;;7.30;67.30;;;;;;5068339;28;20040;-79
2021/11/28 09:03:42;;;;;;;7.00;2.05;;;7.50;67.30;;;;;;5068072;28;20036;-81
2021/11/28 09:06:08;;;;;;;7.18;2.05;;;7.60;66.10;;;;;;5057292;28;20032;-77
2021/11/28 09:08:37;;;;;;;3.67;1.48;;;7.70;66.30;;;;;;5068200;28;20025;-79
2021/11/28 09:11:04;;;;;;;5.13;1.55;;;7.60;65.10;;;;;;5069527;28;20016;-79
2021/11/28 09:13:32;;;;;;;3.33;1.55;;;7.60;63.70;;;;;;5067917;28;20035;-79
2021/11/28 09:15:58;;;;;;;2.00;1.77;;;7.70;62.20;;;;;;5068951;28;20041;-78
2021/11/28 09:18:28;;;;;;;2.03;1.65;;;7.70;61.40;;;;;;5070139;28;20024;-79
2021/11/28 09:21:00;;;;;;;4.20;2.15;;;8.00;61.90;;;;;;5071114;28;20024;-78
2021/11/28 09:26:11;;;;;;;5.13;1.98;;;8.60;59.70;;;;;;5067755;28;20028;-79
2021/11/28 09:28:37;;;;;;;4.15;1.63;;;8.70;59.60;;;;;;5057101;28;20024;-79
2021/11/28 09:31:05;;;;;;;3.80;1.25;;;8.50;60.40;;;;;;5054211;28;20081;-80
2021/11/28 09:33:31;;;;;;;5.45;1.40;;;8.50;60.00;;;;;;5051548;28;20498;-79
2021/11/28 09:35:57;;;;;;;3.70;1.33;;;8.60;60.60;;;;;;5052673;28;20032;-80
2021/11/28 09:38:23;;;;;;;4.32;1.02;;;8.70;58.90;;;;;;5058853;28;20059;-81
2021/11/28 09:40:50;;;;;;;4.10;1.30;;;8.60;59.50;;;;;;5056762;28;20095;-79
2021/11/28 09:43:18;;;;;;;4.20;1.33;;;8.70;59.10;;;;;;5053651;28;20055;-81
2021/11/28 09:45:45;;;;;;;3.45;1.48;;;8.70;59.80;;;;;;5057564;28;20035;-79
2021/11/28 09:48:11;;;;;;;6.20;1.17;;;8.90;59.10;;;;;;5052759;28;20035;-85
2021/11/28 09:50:38;;;;;;;7.05;1.45;;;8.80;57.80;;;;;;5055477;28;20375;-80
2021/11/28 09:53:05;;;;;;;2.45;1.30;;;8.70;57.50;;;;;;5066464;28;20057;-80
2021/11/28 09:55:32;;;;;;;8.88;1.35;;;8.40;57.30;;;;;;5061323;28;20033;-80
2021/11/28 09:57:58;;;;;;;3.45;0.98;;;8.30;58.80;;;;;;5065808;28;20040;-81
2021/11/28 10:00:25;;;;;;;2.50;1.02;;;8.40;58.80;;;;;;5064699;28;20021;-79
2021/11/28 10:02:51;;;;;;;7.25;1.40;;;8.30;57.70;;;;;;5065627;28;20028;-81
2021/11/28 10:05:17;;;;;;;7.90;1.85;;;8.20;57.20;;;;;;5065580;28;20032;-80
2021/11/28 10:07:45;;;;;;;5.43;1.45;;;8.30;57.40;;;;;;5060619;28;20498;-82
2021/11/28 10:10:13;;;;;;;5.97;1.33;;;8.50;57.90;;;;;;5040906;28;20496;-81
2021/11/28 10:12:42;;;;;;;4.85;1.17;;;8.60;57.40;;;;;;5056606;28;20079;-81
2021/11/28 10:15:16;;;;;;;3.33;1.40;;;8.60;55.50;;;;;;5053213;28;20035;-85
2021/11/28 10:17:41;;;;;;;4.78;1.40;;;8.50;56.30;;;;;;5037383;28;20041;-86
2021/11/28 10:20:14;;;;;;;5.47;1.42;;;8.50;57.20;;;;;;5037402;28;20064;-79
2021/11/28 10:22:40;;;;;;;3.08;1.10;;;8.50;56.70;;;;;;5035200;28;20068;-82
2021/11/28 10:25:15;;;;;;;4.38;1.17;;;8.40;56.40;;;;;;5046027;28;20119;-81
2021/11/28 10:27:44;;;;;;;3.55;1.10;;;8.40;56.40;;;;;;5055131;28;20076;-82
2021/11/28 10:30:35;;;;;;;2.72;1.23;;;8.30;55.50;;;;;;5048292;28;20031;-82
2021/11/28 10:33:27;;;;;;;4.43;1.50;;;8.30;56.30;;;;;;5036207;28;20044;-82
2021/11/28 10:36:02;;;;;;;2.92;1.42;;;8.30;56.60;;;;;;5035876;28;20060;-82
2021/11/28 10:38:35;;;;;;;5.38;1.55;;;8.20;55.30;;;;;;5034629;28;20022;-82
2021/11/28 10:41:01;;;;;;;3.05;1.38;;;8.20;56.60;;;;;;5036317;28;20026;-82
2021/11/28 10:43:38;;;;;;;5.13;1.40;;;8.30;57.10;;;;;;5036814;28;20499;-82
2021/11/28 10:46:30;;;;;;;5.18;1.30;;;8.20;55.90;;;;;;5069079;28;20036;-82
2021/11/28 10:49:24;;;;;;;2.53;1.20;;;8.20;56.90;;;;;;5076557;28;20033;-82
2021/11/28 10:51:53;;;;;;;3.00;1.38;;;8.20;56.50;;;;;;5053844;28;20045;-82
2021/11/28 10:54:31;;;;;;;4.18;1.48;;;8.30;57.10;;;;;;5055944;28;20033;-83
2021/11/28 10:57:02;;;;;;;1.55;1.00;;;8.30;56.10;;;;;;5056269;28;20029;-83
2021/11/28 10:59:28;;;;;;;2.40;1.25;;;8.30;55.60;;;;;;5043883;28;20025;-82
2021/11/28 11:01:53;;;;;;;3.05;1.20;;;8.20;55.60;;;;;;5036414;28;20109;-83
2021/11/28 11:04:20;;;;;;;1.75;1.27;;;8.40;56.50;;;;;;5034779;28;20017;-83
2021/11/28 11:07:13;;;;;;;2.03;1.30;;;8.30;55.30;;;;;;5034657;28;20124;-83
2021/11/28 11:09:46;;;;;;;1.58;1.45;;;8.20;55.30;;;;;;5036384;28;20041;-83
2021/11/28 11:12:21;;;;;;;4.20;1.10;;;8.30;55.90;;;;;;5036241;28;20025;-83
2021/11/28 11:14:50;;;;;;;3.38;1.30;;;8.30;56.50;;;;;;5051846;28;20040;-83
2021/11/28 11:17:15;;;;;;;5.10;1.40;;;8.30;56.10;;;;;;5055515;28;20075;-83
2021/11/28 11:19:46;;;;;;;4.95;1.20;;;8.50;56.10;;;;;;5045828;28;20488;-84
2021/11/28 11:22:18;;;;;;;2.38;1.20;;;8.70;55.30;;;;;;5036117;28;20026;-83
2021/11/28 11:24:51;;;;;;;3.78;1.40;;;8.70;53.80;;;;;;5035898;28;20022;-84
2021/11/28 11:27:20;;;;;;;3.75;1.00;;;8.80;54.70;;;;;;5035901;28;20025;-83
2021/11/28 11:29:48;;;;;;;4.57;1.30;;;8.80;54.20;;;;;;5035102;28;20041;-83
2021/11/28 11:32:17;;;;;;;7.68;1.08;;;8.70;53.40;;;;;;5035482;28;20041;-84
2021/11/28 11:34:51;;;;;;;1.23;0.80;;;8.60;53.90;;;;;;5051643;28;20025;-83
2021/11/28 11:37:18;;;;;;;5.70;1.45;;;8.30;54.30;;;;;;5055259;28;20033;-84
2021/11/28 11:39:46;;;;;;;3.85;1.20;;;8.30;53.40;;;;;;5054283;28;20025;-84
2021/11/28 11:42:15;;;;;;;2.42;0.85;;;8.40;54.40;;;;;;5034158;28;20068;-84
2021/11/28 11:44:44;;;;;;;1.35;1.00;;;8.50;54.40;;;;;;5040956;28;20017;-84
2021/11/28 11:47:09;;;;;;;6.28;1.35;;;8.70;53.30;;;;;;5075008;28;20028;-84
2021/11/28 11:49:38;;;;;;;3.13;1.00;;;8.70;53.60;;;;;;5054392;28;20033;-84
2021/11/28 11:52:05;;;;;;;2.13;0.98;;;8.70;53.50;;;;;;5050138;28;20091;-84
2021/11/28 11:54:45;;;;;;;1.40;0.73;;;8.50;54.20;;;;;;5035463;28;20466;-84
2021/11/28 11:57:37;;;;;;;9.27;1.30;;;8.40;55.20;;;;;;5035229;28;20057;-84
2021/11/28 12:00:08;;;;;;;1.45;1.08;;;8.30;55.40;;;;;;5033515;28;20523;-85
2021/11/28 12:02:42;;;;;;;2.10;1.27;;;8.50;56.10;;;;;;5035374;28;20480;-84
2021/11/28 12:05:26;;;;;;;1.95;1.05;;;8.70;55.00;;;;;;5034742;28;20025;-85
2021/11/28 12:08:09;;;;;;;2.45;1.10;;;8.50;55.30;;;;;;5035083;28;20025;-85
2021/11/28 12:10:41;;;;;;;2.28;0.90;;;8.60;55.80;;;;;;5033714;28;20021;-85
2021/11/28 12:13:34;;;;;;;1.65;1.50;;;8.60;55.50;;;;;;5038853;28;20017;-85
2021/11/28 12:16:03;;;;;;;5.55;1.05;;;8.60;54.80;;;;;;5050446;28;20056;-85
2021/11/28 12:18:35;;;;;;;2.70;1.05;;;8.60;55.30;;;;;;5053509;28;20033;-85
2021/11/28 12:21:03;;;;;;;4.53;1.10;;;8.50;55.30;;;;;;5054811;28;20106;-86
2021/11/28 12:24:05;;;;;;;3.55;1.23;;;8.60;54.60;;;;;;5054810;28;20037;-85
2021/11/28 12:26:31;;;;;;;4.15;1.00;;;8.50;55.00;;;;;;5054894;28;20380;-86
2021/11/28 12:29:08;;;;;;;2.25;1.00;;;8.60;53.20;;;;;;5052401;28;20119;-86
2021/11/28 12:31:43;;;;;;;3.78;1.45;;;8.60;52.30;;;;;;5055057;28;20036;-86
2021/11/28 12:34:11;;;;;;;6.38;1.33;;;8.50;53.40;;;;;;5052262;28;20037;-86
2021/11/28 12:37:20;;;;;;;3.08;1.20;;;8.50;53.80;;;;;;5053409;28;20491;-86
2021/11/28 12:39:46;;;;;;;1.92;1.33;;;8.70;54.10;;;;;;5025965;28;20079;-85
2021/11/28 12:42:19;;;;;;;1.73;1.17;;;8.50;52.40;;;;;;5033391;28;20026;-86
2021/11/28 12:44:51;;;;;;;4.18;1.10;;;8.50;51.30;;;;;;5039893;28;20020;-86
2021/11/28 12:48:00;;;;;;;2.50;1.30;;;8.30;51.30;;;;;;5054943;28;20029;-85
2021/11/28 12:50:26;;;;;;;3.20;1.13;;;8.20;51.60;;;;;;5034765;28;20036;-86
2021/11/28 12:52:53;;;;;;;1.67;0.80;;;8.10;51.50;;;;;;5049982;28;20033;-85
2021/11/28 12:55:26;;;;;;;2.53;1.02;;;8.10;52.00;;;;;;5035121;28;20033;-85
2021/11/28 12:58:00;;;;;;;1.38;0.95;;;8.10;51.50;;;;;;5053365;28;20025;-86
2021/11/28 13:00:46;;;;;;;7.18;1.30;;;8.20;53.00;;;;;;5054384;28;20029;-85
2021/11/28 13:03:11;;;;;;;2.25;1.00;;;8.10;52.00;;;;;;5053877;28;20056;-85
2021/11/28 13:05:46;;;;;;;1.35;0.98;;;8.30;52.60;;;;;;5058170;28;20037;-85
2021/11/28 13:08:11;;;;;;;2.45;1.20;;;8.30;52.90;;;;;;5051996;28;20021;-85
2021/11/28 13:11:05;;;;;;;4.47;1.15;;;8.20;51.60;;;;;;5037184;28;20033;-85
2021/11/28 13:13:33;;;;;;;5.15;1.38;;;8.30;52.50;;;;;;5045232;28;20392;-86